sensor_id;sensor_type;location;lat;lon;timestamp;pressure;altitude;pressure_sealevel;temperature
24201;BMP280;2801;50.972;7.856;2022-08-16T00:01:21;96813.97;;;14.74
24201;BMP280;2801;50.972;7.856;2022-08-16T00:03:51;96818.88;;;14.69
24201;BMP280;2801;50.972;7.856;2022-08-16T00:06:20;96819.94;;;14.61
24201;BMP280;2801;50.972;7.856;2022-08-16T00:08:48;96802.50;;;14.55
24201;BMP280;2801;50.972;7.856;2022-08-16T00:11:19;96822.66;;;14.64
24201;BMP280;2801;50.972;7.856;2022-08-16T00:13:48;96821.59;;;14.69
24201;BMP280;2801;50.972;7.856;2022-08-16T00:16:26;96826.97;;;14.69
24201;BMP280;2801;50.972;7.856;2022-08-16T00:19:20;96828.00;;;14.57
24201;BMP280;2801;50.972;7.856;2022-08-16T00:21:50;96819.78;;;14.50
24201;BMP280;2801;50.972;7.856;2022-08-16T00:24:21;96802.09;;;14.27
24201;BMP280;2801;50.972;7.856;2022-08-16T00:27:01;96829.88;;;14.31
24201;BMP280;2801;50.972;7.856;2022-08-16T00:29:28;96840.25;;;14.29
24201;BMP280;2801;50.972;7.856;2022-08-16T00:31:57;96843.72;;;14.29
24201;BMP280;2801;50.972;7.856;2022-08-16T00:34:34;96837.09;;;14.23
24201;BMP280;2801;50.972;7.856;2022-08-16T00:37:20;96844.75;;;14.21
24201;BMP280;2801;50.972;7.856;2022-08-16T00:39:52;96847.50;;;14.25
24201;BMP280;2801;50.972;7.856;2022-08-16T00:42:28;96843.69;;;14.26
24201;BMP280;2801;50.972;7.856;2022-08-16T00:48:06;96849.81;;;14.26
24201;BMP280;2801;50.972;7.856;2022-08-16T00:50:54;96846.94;;;14.16
24201;BMP280;2801;50.972;7.856;2022-08-16T00:53:22;96846.38;;;14.26
24201;BMP280;2801;50.972;7.856;2022-08-16T00:55:54;96848.72;;;14.27
24201;BMP280;2801;50.972;7.856;2022-08-16T00:58:25;96855.22;;;14.26
24201;BMP280;2801;50.972;7.856;2022-08-16T01:01:03;96847.88;;;14.23
24201;BMP280;2801;50.972;7.856;2022-08-16T01:03:39;96851.69;;;14.22
24201;BMP280;2801;50.972;7.856;2022-08-16T01:06:10;96842.75;;;14.18
24201;BMP280;2801;50.972;7.856;2022-08-16T01:08:59;96826.34;;;14.04
24201;BMP280;2801;50.972;7.856;2022-08-16T01:11:27;96833.41;;;14.12
24201;BMP280;2801;50.972;7.856;2022-08-16T01:14:20;96830.72;;;14.12
24201;BMP280;2801;50.972;7.856;2022-08-16T01:16:57;96838.38;;;14.10
24201;BMP280;2801;50.972;7.856;2022-08-16T01:19:33;96839.91;;;14.11
24201;BMP280;2801;50.972;7.856;2022-08-16T01:25:42;96829.28;;;13.96
24201;BMP280;2801;50.972;7.856;2022-08-16T01:28:14;96836.66;;;13.99
24201;BMP280;2801;50.972;7.856;2022-08-16T01:30:52;96839.03;;;14.04
24201;BMP280;2801;50.972;7.856;2022-08-16T01:33:21;96843.72;;;14.07
24201;BMP280;2801;50.972;7.856;2022-08-16T01:35:51;96838.81;;;14.12
24201;BMP280;2801;50.972;7.856;2022-08-16T01:38:26;96839.28;;;14.18
24201;BMP280;2801;50.972;7.856;2022-08-16T01:41:04;96833.97;;;14.21
24201;BMP280;2801;50.972;7.856;2022-08-16T01:43:35;96839.00;;;14.23
24201;BMP280;2801;50.972;7.856;2022-08-16T01:46:16;96827.72;;;14.17
24201;BMP280;2801;50.972;7.856;2022-08-16T01:49:12;96834.25;;;14.16
24201;BMP280;2801;50.972;7.856;2022-08-16T01:51:44;96835.31;;;14.12
24201;BMP280;2801;50.972;7.856;2022-08-16T01:54:11;96831.47;;;14.13
24201;BMP280;2801;50.972;7.856;2022-08-16T01:56:41;96838.50;;;14.17
24201;BMP280;2801;50.972;7.856;2022-08-16T01:59:12;96835.78;;;14.17
24201;BMP280;2801;50.972;7.856;2022-08-16T02:01:44;96833.91;;;14.18
24201;BMP280;2801;50.972;7.856;2022-08-16T02:04:21;96833.16;;;14.21
24201;BMP280;2801;50.972;7.856;2022-08-16T02:07:08;96807.56;;;14.11
24201;BMP280;2801;50.972;7.856;2022-08-16T02:09:38;96823.97;;;14.22
24201;BMP280;2801;50.972;7.856;2022-08-16T02:12:08;96835.16;;;14.24
24201;BMP280;2801;50.972;7.856;2022-08-16T02:14:55;96821.53;;;14.17
24201;BMP280;2801;50.972;7.856;2022-08-16T02:17:25;96805.56;;;14.05
24201;BMP280;2801;50.972;7.856;2022-08-16T02:19:54;96821.97;;;14.19
24201;BMP280;2801;50.972;7.856;2022-08-16T02:22:26;96825.16;;;14.24
24201;BMP280;2801;50.972;7.856;2022-08-16T02:25:12;96812.88;;;14.27
24201;BMP280;2801;50.972;7.856;2022-08-16T02:27:43;96807.59;;;14.34
24201;BMP280;2801;50.972;7.856;2022-08-16T02:30:24;96806.81;;;14.33
24201;BMP280;2801;50.972;7.856;2022-08-16T02:33:11;96805.63;;;14.31
24201;BMP280;2801;50.972;7.856;2022-08-16T02:35:41;96824.97;;;14.36
24201;BMP280;2801;50.972;7.856;2022-08-16T02:38:27;96816.50;;;14.38
24201;BMP280;2801;50.972;7.856;2022-08-16T02:40:56;96817.69;;;14.40
24201;BMP280;2801;50.972;7.856;2022-08-16T02:43:27;96811.44;;;14.33
24201;BMP280;2801;50.972;7.856;2022-08-16T02:45:59;96823.28;;;14.28
24201;BMP280;2801;50.972;7.856;2022-08-16T02:48:27;96818.69;;;14.29
24201;BMP280;2801;50.972;7.856;2022-08-16T02:50:59;96814.41;;;14.28
24201;BMP280;2801;50.972;7.856;2022-08-16T02:53:37;96823.34;;;14.32
24201;BMP280;2801;50.972;7.856;2022-08-16T02:56:06;96809.50;;;14.33
24201;BMP280;2801;50.972;7.856;2022-08-16T02:58:35;96790.00;;;14.21
24201;BMP280;2801;50.972;7.856;2022-08-16T03:01:04;96812.44;;;14.25
24201;BMP280;2801;50.972;7.856;2022-08-16T03:03:32;96792.25;;;14.15
24201;BMP280;2801;50.972;7.856;2022-08-16T03:06:21;96809.69;;;14.21
24201;BMP280;2801;50.972;7.856;2022-08-16T03:09:09;96802.19;;;14.11
24201;BMP280;2801;50.972;7.856;2022-08-16T03:11:41;96800.03;;;13.98
24201;BMP280;2801;50.972;7.856;2022-08-16T03:14:08;96802.69;;;13.94
24201;BMP280;2801;50.972;7.856;2022-08-16T03:16:38;96800.66;;;13.88
24201;BMP280;2801;50.972;7.856;2022-08-16T03:19:27;96810.16;;;13.82
24201;BMP280;2801;50.972;7.856;2022-08-16T03:22:16;96813.09;;;13.73
24201;BMP280;2801;50.972;7.856;2022-08-16T03:24:57;96813.88;;;13.74
24201;BMP280;2801;50.972;7.856;2022-08-16T03:27:29;96810.03;;;13.75
24201;BMP280;2801;50.972;7.856;2022-08-16T03:30:16;96804.03;;;13.62
24201;BMP280;2801;50.972;7.856;2022-08-16T03:32:47;96797.41;;;13.56
24201;BMP280;2801;50.972;7.856;2022-08-16T03:35:24;96804.88;;;13.66
24201;BMP280;2801;50.972;7.856;2022-08-16T03:38:02;96810.75;;;13.72
24201;BMP280;2801;50.972;7.856;2022-08-16T03:40:33;96813.44;;;13.72
24201;BMP280;2801;50.972;7.856;2022-08-16T03:43:06;96811.84;;;13.67
24201;BMP280;2801;50.972;7.856;2022-08-16T03:45:48;96819.63;;;13.72
24201;BMP280;2801;50.972;7.856;2022-08-16T03:48:20;96820.78;;;13.71
24201;BMP280;2801;50.972;7.856;2022-08-16T03:51:05;96823.47;;;13.71
24201;BMP280;2801;50.972;7.856;2022-08-16T03:53:35;96828.41;;;13.69
24201;BMP280;2801;50.972;7.856;2022-08-16T03:56:05;96829.19;;;13.70
24201;BMP280;2801;50.972;7.856;2022-08-16T03:58:44;96831.09;;;13.69
24201;BMP280;2801;50.972;7.856;2022-08-16T04:01:14;96831.31;;;13.61
24201;BMP280;2801;50.972;7.856;2022-08-16T04:03:42;96822.31;;;13.50
24201;BMP280;2801;50.972;7.856;2022-08-16T04:06:10;96828.94;;;13.56
24201;BMP280;2801;50.972;7.856;2022-08-16T04:08:37;96810.91;;;13.37
24201;BMP280;2801;50.972;7.856;2022-08-16T04:11:05;96838.69;;;13.41
24201;BMP280;2801;50.972;7.856;2022-08-16T04:13:33;96818.41;;;13.28
24201;BMP280;2801;50.972;7.856;2022-08-16T04:16:20;96834.28;;;13.33
24201;BMP280;2801;50.972;7.856;2022-08-16T04:18:55;96817.50;;;13.21
24201;BMP280;2801;50.972;7.856;2022-08-16T04:21:35;96841.09;;;13.27
24201;BMP280;2801;50.972;7.856;2022-08-16T04:24:13;96839.44;;;13.23
24201;BMP280;2801;50.972;7.856;2022-08-16T04:26:41;96843.72;;;13.24
24201;BMP280;2801;50.972;7.856;2022-08-16T04:29:14;96848.66;;;13.22
24201;BMP280;2801;50.972;7.856;2022-08-16T04:31:52;96847.47;;;13.19
24201;BMP280;2801;50.972;7.856;2022-08-16T04:34:26;96847.16;;;13.24
24201;BMP280;2801;50.972;7.856;2022-08-16T04:36:55;96848.81;;;13.29
24201;BMP280;2801;50.972;7.856;2022-08-16T04:39:29;96855.38;;;13.31
24201;BMP280;2801;50.972;7.856;2022-08-16T04:42:16;96853.91;;;13.34
24201;BMP280;2801;50.972;7.856;2022-08-16T04:44:51;96853.97;;;13.37
24201;BMP280;2801;50.972;7.856;2022-08-16T04:47:30;96841.09;;;13.27
24201;BMP280;2801;50.972;7.856;2022-08-16T04:50:27;96863.66;;;13.42
24201;BMP280;2801;50.972;7.856;2022-08-16T04:52:57;96848.00;;;13.47
24201;BMP280;2801;50.972;7.856;2022-08-16T04:55:27;96860.50;;;13.55
24201;BMP280;2801;50.972;7.856;2022-08-16T04:58:03;96862.22;;;13.67
24201;BMP280;2801;50.972;7.856;2022-08-16T05:00:51;96863.22;;;13.78
24201;BMP280;2801;50.972;7.856;2022-08-16T05:03:19;96862.28;;;13.89
24201;BMP280;2801;50.972;7.856;2022-08-16T05:05:48;96844.63;;;13.92
24201;BMP280;2801;50.972;7.856;2022-08-16T05:08:27;96865.00;;;14.15
24201;BMP280;2801;50.972;7.856;2022-08-16T05:11:03;96856.00;;;14.27
24201;BMP280;2801;50.972;7.856;2022-08-16T05:13:39;96852.41;;;14.42
24201;BMP280;2801;50.972;7.856;2022-08-16T05:16:26;96861.34;;;14.72
24201;BMP280;2801;50.972;7.856;2022-08-16T05:18:59;96865.63;;;15.03
24201;BMP280;2801;50.972;7.856;2022-08-16T05:21:28;96856.69;;;15.28
24201;BMP280;2801;50.972;7.856;2022-08-16T05:24:06;96861.31;;;15.57
24201;BMP280;2801;50.972;7.856;2022-08-16T05:26:35;96853.84;;;15.80
24201;BMP280;2801;50.972;7.856;2022-08-16T05:29:08;96859.44;;;16.01
24201;BMP280;2801;50.972;7.856;2022-08-16T05:31:40;96856.53;;;16.20
24201;BMP280;2801;50.972;7.856;2022-08-16T05:34:19;96860.97;;;16.39
24201;BMP280;2801;50.972;7.856;2022-08-16T05:36:49;96851.84;;;16.57
24201;BMP280;2801;50.972;7.856;2022-08-16T05:39:18;96867.81;;;16.76
24201;BMP280;2801;50.972;7.856;2022-08-16T05:41:46;96866.38;;;16.93
24201;BMP280;2801;50.972;7.856;2022-08-16T05:44:20;96873.44;;;17.11
24201;BMP280;2801;50.972;7.856;2022-08-16T05:46:57;96877.06;;;17.33
24201;BMP280;2801;50.972;7.856;2022-08-16T05:49:28;96864.78;;;17.53
24201;BMP280;2801;50.972;7.856;2022-08-16T05:52:10;96867.56;;;17.74
24201;BMP280;2801;50.972;7.856;2022-08-16T05:54:43;96874.19;;;17.97
24201;BMP280;2801;50.972;7.856;2022-08-16T05:57:16;96873.09;;;18.27
24201;BMP280;2801;50.972;7.856;2022-08-16T05:59:45;96874.66;;;18.52
24201;BMP280;2801;50.972;7.856;2022-08-16T06:02:16;96878.56;;;18.72
24201;BMP280;2801;50.972;7.856;2022-08-16T06:04:43;96870.75;;;18.92
24201;BMP280;2801;50.972;7.856;2022-08-16T06:07:12;96866.81;;;19.21
24201;BMP280;2801;50.972;7.856;2022-08-16T06:09:53;96870.56;;;19.65
24201;BMP280;2801;50.972;7.856;2022-08-16T06:12:26;96867.63;;;20.04
24201;BMP280;2801;50.972;7.856;2022-08-16T06:15:00;96862.00;;;20.35
24201;BMP280;2801;50.972;7.856;2022-08-16T06:17:35;96868.03;;;20.60
24201;BMP280;2801;50.972;7.856;2022-08-16T06:20:17;96862.50;;;20.71
24201;BMP280;2801;50.972;7.856;2022-08-16T06:22:55;96864.72;;;20.83
24201;BMP280;2801;50.972;7.856;2022-08-16T06:25:31;96859.91;;;20.97
24201;BMP280;2801;50.972;7.856;2022-08-16T06:28:08;96864.16;;;21.02
24201;BMP280;2801;50.972;7.856;2022-08-16T06:30:56;96861.84;;;21.00
24201;BMP280;2801;50.972;7.856;2022-08-16T06:33:23;96862.22;;;21.02
24201;BMP280;2801;50.972;7.856;2022-08-16T06:35:52;96859.84;;;21.04
24201;BMP280;2801;50.972;7.856;2022-08-16T06:38:26;96852.81;;;21.07
24201;BMP280;2801;50.972;7.856;2022-08-16T06:41:07;96855.44;;;21.17
24201;BMP280;2801;50.972;7.856;2022-08-16T06:43:40;96833.25;;;21.15
24201;BMP280;2801;50.972;7.856;2022-08-16T06:46:26;96852.19;;;21.29
24201;BMP280;2801;50.972;7.856;2022-08-16T06:48:58;96835.84;;;21.29
24201;BMP280;2801;50.972;7.856;2022-08-16T06:51:25;96843.41;;;21.45
24201;BMP280;2801;50.972;7.856;2022-08-16T06:54:12;96855.59;;;21.71
24201;BMP280;2801;50.972;7.856;2022-08-16T06:56:40;96845.50;;;21.98
24201;BMP280;2801;50.972;7.856;2022-08-16T06:59:08;96855.78;;;22.40
24201;BMP280;2801;50.972;7.856;2022-08-16T07:01:36;96866.81;;;22.82
24201;BMP280;2801;50.972;7.856;2022-08-16T07:04:17;96863.41;;;22.98
24201;BMP280;2801;50.972;7.856;2022-08-16T07:07:00;96870.47;;;22.95
24201;BMP280;2801;50.972;7.856;2022-08-16T07:09:27;96863.41;;;22.98
24201;BMP280;2801;50.972;7.856;2022-08-16T07:11:57;96849.53;;;22.89
24201;BMP280;2801;50.972;7.856;2022-08-16T07:14:30;96857.00;;;22.85
24201;BMP280;2801;50.972;7.856;2022-08-16T07:16:58;96874.69;;;23.00
24201;BMP280;2801;50.972;7.856;2022-08-16T07:19:29;96875.41;;;23.04
24201;BMP280;2801;50.972;7.856;2022-08-16T07:22:19;96867.22;;;23.04
24201;BMP280;2801;50.972;7.856;2022-08-16T07:25:09;96860.50;;;23.08
24201;BMP280;2801;50.972;7.856;2022-08-16T07:27:38;96865.47;;;23.13
24201;BMP280;2801;50.972;7.856;2022-08-16T07:30:11;96862.84;;;23.29
24201;BMP280;2801;50.972;7.856;2022-08-16T07:32:58;96858.94;;;23.50
24201;BMP280;2801;50.972;7.856;2022-08-16T07:35:26;96852.06;;;23.81
24201;BMP280;2801;50.972;7.856;2022-08-16T07:37:53;96855.22;;;24.15
24201;BMP280;2801;50.972;7.856;2022-08-16T07:40:20;96848.06;;;24.53
24201;BMP280;2801;50.972;7.856;2022-08-16T07:43:07;96837.97;;;25.11
24201;BMP280;2801;50.972;7.856;2022-08-16T07:45:35;96855.44;;;25.74
24201;BMP280;2801;50.972;7.856;2022-08-16T07:48:03;96857.84;;;26.25
24201;BMP280;2801;50.972;7.856;2022-08-16T07:50:39;96840.47;;;26.53
24201;BMP280;2801;50.972;7.856;2022-08-16T07:53:29;96855.16;;;26.97
24201;BMP280;2801;50.972;7.856;2022-08-16T07:55:58;96858.81;;;27.15
24201;BMP280;2801;50.972;7.856;2022-08-16T07:58:30;96859.66;;;26.91
24201;BMP280;2801;50.972;7.856;2022-08-16T08:01:04;96867.94;;;26.78
24201;BMP280;2801;50.972;7.856;2022-08-16T08:03:38;96869.81;;;26.56
24201;BMP280;2801;50.972;7.856;2022-08-16T08:06:13;96864.13;;;26.26
24201;BMP280;2801;50.972;7.856;2022-08-16T08:08:41;96867.25;;;25.99
24201;BMP280;2801;50.972;7.856;2022-08-16T08:11:20;96869.41;;;25.79
24201;BMP280;2801;50.972;7.856;2022-08-16T08:13:51;96855.59;;;25.54
24201;BMP280;2801;50.972;7.856;2022-08-16T08:16:20;96871.28;;;25.41
24201;BMP280;2801;50.972;7.856;2022-08-16T08:18:57;96876.19;;;25.34
24201;BMP280;2801;50.972;7.856;2022-08-16T08:21:31;96881.78;;;25.30
24201;BMP280;2801;50.972;7.856;2022-08-16T08:24:21;96878.25;;;25.30
24201;BMP280;2801;50.972;7.856;2022-08-16T08:27:00;96873.97;;;25.29
24201;BMP280;2801;50.972;7.856;2022-08-16T08:29:28;96857.91;;;25.27
24201;BMP280;2801;50.972;7.856;2022-08-16T08:32:08;96883.47;;;25.40
24201;BMP280;2801;50.972;7.856;2022-08-16T08:34:56;96883.28;;;25.47
24201;BMP280;2801;50.972;7.856;2022-08-16T08:37:31;96881.75;;;25.59
24201;BMP280;2801;50.972;7.856;2022-08-16T08:40:19;96878.81;;;25.66
24201;BMP280;2801;50.972;7.856;2022-08-16T08:42:52;96881.81;;;25.71
24201;BMP280;2801;50.972;7.856;2022-08-16T08:45:28;96887.38;;;25.96
24201;BMP280;2801;50.972;7.856;2022-08-16T08:48:15;96890.16;;;26.21
24201;BMP280;2801;50.972;7.856;2022-08-16T08:51:04;96885.97;;;26.29
24201;BMP280;2801;50.972;7.856;2022-08-16T08:53:35;96882.78;;;26.31
24201;BMP280;2801;50.972;7.856;2022-08-16T08:56:04;96880.72;;;26.22
24201;BMP280;2801;50.972;7.856;2022-08-16T08:58:51;96891.47;;;26.17
24201;BMP280;2801;50.972;7.856;2022-08-16T09:01:33;96869.50;;;26.04
24201;BMP280;2801;50.972;7.856;2022-08-16T09:04:05;96885.22;;;26.16
24201;BMP280;2801;50.972;7.856;2022-08-16T09:06:34;96891.13;;;26.15
24201;BMP280;2801;50.972;7.856;2022-08-16T09:09:01;96888.50;;;26.24
24201;BMP280;2801;50.972;7.856;2022-08-16T09:11:29;96892.91;;;26.34
24201;BMP280;2801;50.972;7.856;2022-08-16T09:14:06;96907.50;;;26.31
24201;BMP280;2801;50.972;7.856;2022-08-16T09:16:50;96886.44;;;26.28
24201;BMP280;2801;50.972;7.856;2022-08-16T09:19:38;96896.00;;;26.23
24201;BMP280;2801;50.972;7.856;2022-08-16T09:22:10;96900.81;;;26.19
24201;BMP280;2801;50.972;7.856;2022-08-16T09:24:48;96886.31;;;26.19
24201;BMP280;2801;50.972;7.856;2022-08-16T09:27:21;96890.28;;;26.30
24201;BMP280;2801;50.972;7.856;2022-08-16T09:29:51;96893.91;;;26.40
24201;BMP280;2801;50.972;7.856;2022-08-16T09:32:29;96878.59;;;26.39
24201;BMP280;2801;50.972;7.856;2022-08-16T09:34:59;96892.81;;;26.62
24201;BMP280;2801;50.972;7.856;2022-08-16T09:37:28;96883.56;;;26.69
24201;BMP280;2801;50.972;7.856;2022-08-16T09:40:05;96891.50;;;26.79
24201;BMP280;2801;50.972;7.856;2022-08-16T09:42:53;96890.91;;;26.84
24201;BMP280;2801;50.972;7.856;2022-08-16T09:45:25;96892.00;;;26.99
24201;BMP280;2801;50.972;7.856;2022-08-16T09:47:54;96894.81;;;27.08
24201;BMP280;2801;50.972;7.856;2022-08-16T09:50:26;96888.63;;;27.17
24201;BMP280;2801;50.972;7.856;2022-08-16T09:53:10;96899.06;;;27.34
24201;BMP280;2801;50.972;7.856;2022-08-16T09:55:46;96875.84;;;27.35
24201;BMP280;2801;50.972;7.856;2022-08-16T09:58:19;96890.91;;;27.43
24201;BMP280;2801;50.972;7.856;2022-08-16T10:01:08;96887.38;;;27.64
24201;BMP280;2801;50.972;7.856;2022-08-16T10:03:37;96873.34;;;27.71
24201;BMP280;2801;50.972;7.856;2022-08-16T10:06:25;96882.44;;;28.33
24201;BMP280;2801;50.972;7.856;2022-08-16T10:09:06;96875.13;;;28.88
24201;BMP280;2801;50.972;7.856;2022-08-16T10:11:37;96868.31;;;29.37
24201;BMP280;2801;50.972;7.856;2022-08-16T10:14:37;96875.97;;;29.42
24201;BMP280;2801;50.972;7.856;2022-08-16T10:17:11;96877.34;;;29.02
24201;BMP280;2801;50.972;7.856;2022-08-16T10:19:38;96868.66;;;28.64
24201;BMP280;2801;50.972;7.856;2022-08-16T10:22:05;96880.75;;;28.66
24201;BMP280;2801;50.972;7.856;2022-08-16T10:24:32;96868.66;;;28.73
24201;BMP280;2801;50.972;7.856;2022-08-16T10:27:00;96881.88;;;28.87
24201;BMP280;2801;50.972;7.856;2022-08-16T10:29:47;96874.13;;;29.12
24201;BMP280;2801;50.972;7.856;2022-08-16T10:32:28;96875.34;;;29.47
24201;BMP280;2801;50.972;7.856;2022-08-16T10:34:59;96862.94;;;29.79
24201;BMP280;2801;50.972;7.856;2022-08-16T10:37:28;96864.00;;;29.90
24201;BMP280;2801;50.972;7.856;2022-08-16T10:40:06;96870.69;;;30.07
24201;BMP280;2801;50.972;7.856;2022-08-16T10:42:54;96875.75;;;30.18
24201;BMP280;2801;50.972;7.856;2022-08-16T10:45:21;96874.22;;;30.08
24201;BMP280;2801;50.972;7.856;2022-08-16T10:47:48;96875.06;;;29.72
24201;BMP280;2801;50.972;7.856;2022-08-16T10:50:30;96873.38;;;29.30
24201;BMP280;2801;50.972;7.856;2022-08-16T10:52:59;96877.44;;;28.98
24201;BMP280;2801;50.972;7.856;2022-08-16T10:55:40;96877.28;;;28.93
24201;BMP280;2801;50.972;7.856;2022-08-16T10:58:13;96880.88;;;29.29
24201;BMP280;2801;50.972;7.856;2022-08-16T11:00:44;96880.56;;;29.36
24201;BMP280;2801;50.972;7.856;2022-08-16T11:03:13;96883.81;;;29.17
24201;BMP280;2801;50.972;7.856;2022-08-16T11:06:01;96887.25;;;28.90
24201;BMP280;2801;50.972;7.856;2022-08-16T11:08:36;96888.94;;;28.88
24201;BMP280;2801;50.972;7.856;2022-08-16T11:11:10;96882.56;;;29.18
24201;BMP280;2801;50.972;7.856;2022-08-16T11:13:46;96869.06;;;29.38
24201;BMP280;2801;50.972;7.856;2022-08-16T11:16:35;96877.84;;;29.72
24201;BMP280;2801;50.972;7.856;2022-08-16T11:19:22;96871.81;;;29.83
24201;BMP280;2801;50.972;7.856;2022-08-16T11:21:49;96882.25;;;29.97
24201;BMP280;2801;50.972;7.856;2022-08-16T11:24:36;96871.22;;;29.79
24201;BMP280;2801;50.972;7.856;2022-08-16T11:27:19;96880.56;;;29.90
24201;BMP280;2801;50.972;7.856;2022-08-16T11:29:54;96876.22;;;30.07
24201;BMP280;2801;50.972;7.856;2022-08-16T11:32:25;96880.94;;;30.25
24201;BMP280;2801;50.972;7.856;2022-08-16T11:35:03;96884.56;;;30.40
24201;BMP280;2801;50.972;7.856;2022-08-16T11:37:48;96885.03;;;30.38
24201;BMP280;2801;50.972;7.856;2022-08-16T11:40:46;96884.50;;;30.07
24201;BMP280;2801;50.972;7.856;2022-08-16T11:43:23;96887.19;;;29.75
24201;BMP280;2801;50.972;7.856;2022-08-16T11:45:54;96894.38;;;29.54
24201;BMP280;2801;50.972;7.856;2022-08-16T11:48:29;96890.84;;;29.54
24201;BMP280;2801;50.972;7.856;2022-08-16T11:50:56;96875.69;;;29.49
24201;BMP280;2801;50.972;7.856;2022-08-16T11:53:23;96871.84;;;29.65
24201;BMP280;2801;50.972;7.856;2022-08-16T11:55:51;96878.88;;;29.84
24201;BMP280;2801;50.972;7.856;2022-08-16T11:58:24;96880.34;;;30.12
24201;BMP280;2801;50.972;7.856;2022-08-16T12:00:54;96875.09;;;30.32
24201;BMP280;2801;50.972;7.856;2022-08-16T12:03:24;96880.69;;;30.55
24201;BMP280;2801;50.972;7.856;2022-08-16T12:06:11;96879.84;;;30.73
24201;BMP280;2801;50.972;7.856;2022-08-16T12:08:57;96882.09;;;30.83
24201;BMP280;2801;50.972;7.856;2022-08-16T12:11:28;96880.03;;;30.93
24201;BMP280;2801;50.972;7.856;2022-08-16T12:14:02;96878.41;;;31.10
24201;BMP280;2801;50.972;7.856;2022-08-16T12:16:31;96871.22;;;31.27
24201;BMP280;2801;50.972;7.856;2022-08-16T12:19:06;96873.00;;;31.39
24201;BMP280;2801;50.972;7.856;2022-08-16T12:21:40;96869.66;;;31.50
24201;BMP280;2801;50.972;7.856;2022-08-16T12:24:26;96863.66;;;31.66
24201;BMP280;2801;50.972;7.856;2022-08-16T12:26:54;96842.44;;;31.48
24201;BMP280;2801;50.972;7.856;2022-08-16T12:29:21;96861.72;;;31.57
24201;BMP280;2801;50.972;7.856;2022-08-16T12:31:51;96871.69;;;31.64
24201;BMP280;2801;50.972;7.856;2022-08-16T12:34:38;96863.47;;;31.69
24201;BMP280;2801;50.972;7.856;2022-08-16T12:37:19;96852.56;;;31.66
24201;BMP280;2801;50.972;7.856;2022-08-16T12:39:52;96853.91;;;31.70
24201;BMP280;2801;50.972;7.856;2022-08-16T12:42:25;96858.41;;;31.68
24201;BMP280;2801;50.972;7.856;2022-08-16T12:45:11;96861.09;;;31.62
24201;BMP280;2801;50.972;7.856;2022-08-16T12:47:38;96852.78;;;31.62
24201;BMP280;2801;50.972;7.856;2022-08-16T12:50:44;96861.13;;;31.91
24201;BMP280;2801;50.972;7.856;2022-08-16T12:53:17;96863.78;;;32.15
24201;BMP280;2801;50.972;7.856;2022-08-16T12:55:47;96868.13;;;32.30
24201;BMP280;2801;50.972;7.856;2022-08-16T12:58:14;96856.13;;;32.24
24201;BMP280;2801;50.972;7.856;2022-08-16T13:01:02;96858.53;;;32.02
24201;BMP280;2801;50.972;7.856;2022-08-16T13:03:30;96847.69;;;31.61
24201;BMP280;2801;50.972;7.856;2022-08-16T13:05:59;96867.91;;;31.38
24201;BMP280;2801;50.972;7.856;2022-08-16T13:08:26;96849.81;;;31.04
24201;BMP280;2801;50.972;7.856;2022-08-16T13:10:59;96865.69;;;31.04
24201;BMP280;2801;50.972;7.856;2022-08-16T13:13:27;96859.78;;;30.87
24201;BMP280;2801;50.972;7.856;2022-08-16T13:15:59;96856.66;;;30.70
24201;BMP280;2801;50.972;7.856;2022-08-16T13:18:36;96855.19;;;30.51
24201;BMP280;2801;50.972;7.856;2022-08-16T13:21:07;96862.59;;;30.45
24201;BMP280;2801;50.972;7.856;2022-08-16T13:23:37;96867.06;;;30.43
24201;BMP280;2801;50.972;7.856;2022-08-16T13:26:10;96867.25;;;30.39
24201;BMP280;2801;50.972;7.856;2022-08-16T13:28:43;96869.53;;;30.41
24201;BMP280;2801;50.972;7.856;2022-08-16T13:31:13;96867.25;;;30.30
24201;BMP280;2801;50.972;7.856;2022-08-16T13:33:43;96864.97;;;30.29
24201;BMP280;2801;50.972;7.856;2022-08-16T13:36:11;96861.00;;;30.12
24201;BMP280;2801;50.972;7.856;2022-08-16T13:38:59;96869.63;;;30.05
24201;BMP280;2801;50.972;7.856;2022-08-16T13:41:27;96870.25;;;30.00
24201;BMP280;2801;50.972;7.856;2022-08-16T13:43:58;96858.78;;;29.83
24201;BMP280;2801;50.972;7.856;2022-08-16T13:46:28;96864.75;;;29.82
24201;BMP280;2801;50.972;7.856;2022-08-16T13:48:56;96868.44;;;29.79
24201;BMP280;2801;50.972;7.856;2022-08-16T13:51:25;96869.53;;;29.72
24201;BMP280;2801;50.972;7.856;2022-08-16T13:53:59;96869.69;;;29.69
24201;BMP280;2801;50.972;7.856;2022-08-16T13:56:33;96874.00;;;29.70
24201;BMP280;2801;50.972;7.856;2022-08-16T13:59:09;96874.00;;;29.70
24201;BMP280;2801;50.972;7.856;2022-08-16T14:01:55;96876.44;;;29.68
24201;BMP280;2801;50.972;7.856;2022-08-16T14:04:32;96869.09;;;29.65
24201;BMP280;2801;50.972;7.856;2022-08-16T14:07:03;96860.97;;;29.61
24201;BMP280;2801;50.972;7.856;2022-08-16T14:09:32;96862.50;;;29.62
24201;BMP280;2801;50.972;7.856;2022-08-16T14:12:04;96856.34;;;29.67
24201;BMP280;2801;50.972;7.856;2022-08-16T14:14:44;96841.63;;;29.61
24201;BMP280;2801;50.972;7.856;2022-08-16T14:17:12;96861.41;;;29.78
24201;BMP280;2801;50.972;7.856;2022-08-16T14:19:42;96847.28;;;29.58
24201;BMP280;2801;50.972;7.856;2022-08-16T14:22:23;96865.38;;;29.86
24201;BMP280;2801;50.972;7.856;2022-08-16T14:24:58;96851.59;;;30.27
24201;BMP280;2801;50.972;7.856;2022-08-16T14:27:28;96863.88;;;30.68
24201;BMP280;2801;50.972;7.856;2022-08-16T14:29:56;96855.91;;;30.93
24201;BMP280;2801;50.972;7.856;2022-08-16T14:32:28;96856.63;;;31.18
24201;BMP280;2801;50.972;7.856;2022-08-16T14:35:05;96860.19;;;31.42
24201;BMP280;2801;50.972;7.856;2022-08-16T14:37:34;96846.09;;;31.69
24201;BMP280;2801;50.972;7.856;2022-08-16T14:40:03;96854.44;;;31.83
24201;BMP280;2801;50.972;7.856;2022-08-16T14:42:31;96859.50;;;31.85
24201;BMP280;2801;50.972;7.856;2022-08-16T14:45:05;96859.50;;;31.85
24201;BMP280;2801;50.972;7.856;2022-08-16T14:47:39;96841.22;;;31.64
24201;BMP280;2801;50.972;7.856;2022-08-16T14:50:12;96864.59;;;31.63
24201;BMP280;2801;50.972;7.856;2022-08-16T14:52:44;96866.97;;;31.41
24201;BMP280;2801;50.972;7.856;2022-08-16T14:55:32;96861.53;;;31.23
24201;BMP280;2801;50.972;7.856;2022-08-16T14:58:02;96840.09;;;30.85
24201;BMP280;2801;50.972;7.856;2022-08-16T15:00:31;96868.25;;;30.83
24201;BMP280;2801;50.972;7.856;2022-08-16T15:03:06;96871.19;;;30.47
24201;BMP280;2801;50.972;7.856;2022-08-16T15:05:38;96862.91;;;30.47
24201;BMP280;2801;50.972;7.856;2022-08-16T15:08:05;96841.06;;;30.49
24201;BMP280;2801;50.972;7.856;2022-08-16T15:10:34;96851.63;;;30.60
24201;BMP280;2801;50.972;7.856;2022-08-16T15:13:07;96862.44;;;30.81